createdAt,value
2023-03-16T00:12:31.228Z,5.6
2023-03-16T00:17:31.233Z,5.4
2023-03-16T00:22:31.195Z,5.7
2023-03-16T00:32:31.246Z,5.6
2023-03-16T00:37:31.250Z,5.7
2023-03-16T00:47:31.217Z,5.8
2023-03-16T00:52:31.195Z,5.6
2023-03-16T00:57:31.216Z,5.7
2023-03-16T01:02:31.237Z,5.6
2023-03-16T01:27:31.219Z,5.5
2023-03-16T01:32:31.253Z,5.8
2023-03-16T01:37:31.202Z,5.7
2023-03-16T01:47:31.254Z,5.5
2023-03-16T01:52:31.207Z,5.7
2023-03-16T01:57:31.208Z,5.4
2023-03-16T02:02:31.262Z,5.5
2023-03-16T02:27:31.233Z,5.4
2023-03-16T02:32:31.265Z,5.6
2023-03-16T02:37:31.224Z,5.4
2023-03-16T02:42:31.229Z,5.5
2023-03-16T02:47:31.257Z,5.4
2023-03-16T02:52:31.239Z,5.6
2023-03-16T02:57:31.231Z,5.7
2023-03-16T03:17:31.259Z,5.6
2023-03-16T03:22:31.266Z,5.8
2023-03-16T03:32:31.342Z,5.7
2023-03-16T03:47:31.250Z,5.6
2023-03-16T03:57:31.258Z,5.4
2023-03-16T04:12:31.296Z,5.3
2023-03-16T04:17:31.248Z,5.2
2023-03-16T04:22:31.286Z,5.3
2023-03-16T04:27:31.310Z,5.1
2023-03-16T04:32:31.292Z,5.0
2023-03-16T04:37:31.267Z,5.2
2023-03-16T04:52:31.276Z,5.1
2023-03-16T04:57:31.283Z,5.2
2023-03-16T05:02:31.255Z,5.1
2023-03-16T05:17:31.269Z,5.3
2023-03-16T05:22:31.262Z,5.2
2023-03-16T05:27:31.284Z,5.3
2023-03-16T05:32:31.316Z,5.4
2023-03-16T05:37:31.309Z,5.5
2023-03-16T05:42:31.283Z,5.4
2023-03-16T05:47:31.289Z,5.3
2023-03-16T05:52:31.289Z,5.4
2023-03-16T05:57:31.301Z,5.2
2023-03-16T06:02:31.297Z,5.3
2023-03-16T06:17:31.289Z,5.4
2023-03-16T06:22:31.288Z,5.5
2023-03-16T06:27:31.303Z,5.6
2023-03-16T06:32:31.351Z,5.7
2023-03-16T06:42:31.321Z,5.5
2023-03-16T06:47:31.291Z,5.7
2023-03-16T06:57:31.320Z,5.8
2023-03-16T07:02:31.279Z,5.7
2023-03-16T07:07:31.282Z,5.6
2023-03-16T07:12:31.309Z,5.5
2023-03-16T07:17:31.304Z,5.4
2023-03-16T07:22:31.310Z,5.5
2023-03-16T07:27:31.313Z,5.7
2023-03-16T07:32:31.356Z,5.6
2023-03-16T07:37:31.307Z,5.7
2023-03-16T07:47:31.361Z,5.8
2023-03-16T07:57:31.332Z,5.7
2023-03-16T08:12:31.409Z,5.8
2023-03-16T08:17:31.320Z,5.6
2023-03-16T08:22:31.295Z,5.7
2023-03-16T08:27:31.303Z,5.6
2023-03-16T08:32:31.355Z,6.0
2023-03-16T08:37:31.340Z,5.9
2023-03-16T08:42:31.361Z,6.2
2023-03-16T08:47:31.345Z,6.4
2023-03-16T08:52:31.296Z,6.2
2023-03-16T08:57:31.351Z,6.1
2023-03-16T09:02:31.339Z,6.3
2023-03-16T09:07:31.354Z,6.2
2023-03-16T09:12:31.325Z,6.4
2023-03-16T09:17:31.330Z,6.2
2023-03-16T09:27:31.325Z,6.6
2023-03-16T09:32:31.380Z,6.7
2023-03-16T09:37:44.481Z,6.9
2023-03-16T09:42:31.345Z,7.2
2023-03-16T09:47:31.334Z,7.0
2023-03-16T10:07:31.359Z,7.3
2023-03-16T10:12:31.329Z,7.2
2023-03-16T10:17:31.335Z,7.5
2023-03-16T10:22:31.346Z,7.9
2023-03-16T10:27:31.321Z,7.8
2023-03-16T10:32:31.410Z,8.6
2023-03-16T10:37:31.344Z,10.0
2023-03-16T10:42:31.336Z,10.6
2023-03-16T10:52:31.371Z,10.1
2023-03-16T10:57:31.337Z,10.3
2023-03-16T11:02:31.361Z,10.2
2023-03-16T11:07:31.370Z,11.5
2023-03-16T11:17:31.335Z,11.8
2023-03-16T11:22:31.400Z,11.9
2023-03-16T11:27:31.380Z,12.6
2023-03-16T11:32:31.366Z,12.1
2023-03-16T11:37:31.367Z,11.7
2023-03-16T11:42:31.363Z,11.8
2023-03-16T11:47:31.373Z,11.4
2023-03-16T11:52:31.367Z,11.3
2023-03-16T11:57:31.353Z,11.1
2023-03-16T12:02:31.453Z,11.3
2023-03-16T12:07:31.398Z,11.0
2023-03-16T12:12:31.362Z,11.3
2023-03-16T12:17:31.369Z,11.7
2023-03-16T12:27:31.394Z,12.6
2023-03-16T12:32:31.399Z,12.7
2023-03-16T12:37:31.377Z,12.9
2023-03-16T12:42:31.362Z,13.2
2023-03-16T12:47:31.407Z,13.7
2023-03-16T12:52:31.379Z,14.0
2023-03-16T12:57:31.370Z,14.1
2023-03-16T13:02:31.388Z,13.1
2023-03-16T13:07:31.386Z,13.5
2023-03-16T13:12:31.381Z,13.3
2023-03-16T13:17:31.456Z,13.4
2023-03-16T13:22:31.403Z,13.1
2023-03-16T13:27:31.405Z,13.3
2023-03-16T13:32:31.464Z,13.6
2023-03-16T13:37:31.412Z,13.5
2023-03-16T13:47:31.401Z,13.8
2023-03-16T13:52:31.457Z,14.6
2023-03-16T13:57:31.396Z,14.5
2023-03-16T14:02:31.433Z,15.0
2023-03-16T14:07:31.407Z,15.2
2023-03-16T14:12:32.644Z,14.0
2023-03-16T14:17:31.402Z,13.8
2023-03-16T14:22:31.418Z,14.2
2023-03-16T14:27:31.422Z,14.3
2023-03-16T14:32:31.421Z,14.1
2023-03-16T14:37:31.404Z,14.0
2023-03-16T14:42:31.399Z,14.3
2023-03-16T14:47:31.411Z,14.4
2023-03-16T14:52:31.427Z,15.5
2023-03-16T14:57:31.429Z,14.8
2023-03-16T15:02:31.451Z,15.2
2023-03-16T15:07:31.458Z,15.9
2023-03-16T15:12:31.436Z,16.2
2023-03-16T15:17:31.411Z,17.2
2023-03-16T15:22:31.439Z,17.1
2023-03-16T15:27:31.463Z,17.4
2023-03-16T15:32:31.461Z,17.1
2023-03-16T15:37:31.465Z,15.8
2023-03-16T15:42:31.416Z,16.3
2023-03-16T15:47:31.417Z,17.1
2023-03-16T15:52:31.433Z,16.6
2023-03-16T15:57:31.418Z,16.7
2023-03-16T16:02:31.436Z,17.6
2023-03-16T16:07:31.458Z,15.8
2023-03-16T16:12:31.454Z,14.6
2023-03-16T16:17:47.974Z,13.7
2023-03-16T16:22:31.429Z,13.5
2023-03-16T16:27:31.491Z,13.7
2023-03-16T16:32:31.454Z,13.5
2023-03-16T16:42:31.470Z,13.2
2023-03-16T16:52:31.440Z,13.1
2023-03-16T16:57:31.452Z,12.8
2023-03-16T17:02:31.459Z,12.6
2023-03-16T17:07:31.471Z,12.5
2023-03-16T17:12:31.478Z,12.3
2023-03-16T17:17:31.449Z,12.2
2023-03-16T17:22:31.435Z,11.9
2023-03-16T17:27:31.472Z,11.8
2023-03-16T17:32:31.532Z,11.6
2023-03-16T17:42:31.494Z,11.4
2023-03-16T17:52:31.492Z,11.2
2023-03-16T18:02:31.509Z,11.1
2023-03-16T18:12:31.497Z,11.0
2023-03-16T18:17:32.797Z,10.8
2023-03-16T18:22:31.480Z,10.7
2023-03-16T18:32:31.531Z,10.6
2023-03-16T18:37:31.487Z,10.5
2023-03-16T18:47:31.543Z,10.4
2023-03-16T18:52:31.470Z,10.3
2023-03-16T19:12:31.486Z,10.2
2023-03-16T19:22:31.496Z,10.1
2023-03-16T19:32:31.552Z,9.9
2023-03-16T19:37:31.506Z,10.0
2023-03-16T19:47:31.540Z,10.2
2023-03-16T19:52:31.515Z,10.1
2023-03-16T20:07:31.542Z,9.9
2023-03-16T20:12:31.497Z,10.0
2023-03-16T20:17:31.509Z,9.9
2023-03-16T20:27:31.514Z,10.0
2023-03-16T20:32:31.562Z,10.1
2023-03-16T20:42:31.514Z,10.0
2023-03-16T20:47:31.522Z,9.9
2023-03-16T20:57:31.517Z,9.8
2023-03-16T21:07:31.563Z,9.7
2023-03-16T21:17:31.525Z,9.6
2023-03-16T21:22:31.570Z,9.5
2023-03-16T21:27:31.565Z,9.4
2023-03-16T21:42:31.532Z,9.3
2023-03-16T21:52:31.548Z,9.1
2023-03-16T21:57:32.705Z,9.0
2023-03-16T22:12:31.567Z,8.8
2023-03-16T22:22:31.534Z,8.7
2023-03-16T22:32:31.620Z,8.8
2023-03-16T22:57:31.607Z,8.6
2023-03-16T23:02:31.581Z,8.7
2023-03-16T23:07:31.548Z,8.6
2023-03-16T23:12:31.538Z,8.7
2023-03-16T23:17:31.573Z,8.8
2023-03-16T23:22:31.554Z,8.9
2023-03-16T23:37:31.570Z,9.0
2023-03-16T23:42:31.585Z,9.1
2023-03-16T23:47:31.585Z,9.0
2023-03-16T23:57:31.585Z,8.9
